Time;durP1;ratioP1;P1;durP2;ratioP2;P2;SDS_P1;SDS_P2;PMS_P1;PMS_P2;Temp;Humidity;BMP_temperature;BMP_pressure;BME280_temperature;BME280_humidity;BME280_pressure;Samples;Min_cycle;Max_cycle;Signal;HPM_P1;HPM_P2
2022/04/17 00:00:03;;;;;;;;;;;15.30;99.90;;;;;;5075382;28;19978;-90
2022/04/17 00:02:30;;;;;;;;;;;14.40;99.90;;;;;;5075433;28;20363;-91
2022/04/17 00:04:57;;;;;;;;;;;14.70;99.90;;;;;;5075032;28;19924;-90
2022/04/17 00:07:23;;;;;;;;;;;14.60;99.90;;;;;;5075070;28;19947;-91
2022/04/17 00:09:50;;;;;;;;;;;14.70;99.90;;;;;;5075035;28;19928;-89
2022/04/17 00:12:17;;;;;;;;;;;14.40;99.90;;;;;;5074906;28;20325;-87
2022/04/17 00:14:44;;;;;;;;;;;14.70;99.90;;;;;;5074809;28;19924;-89
2022/04/17 00:17:13;;;;;;;;;;;15.40;99.90;;;;;;5074903;28;20011;-91
2022/04/17 00:19:39;;;;;;;;;;;14.40;99.90;;;;;;5075278;28;19931;-90
2022/04/17 00:22:06;;;;;;;;;;;14.60;99.90;;;;;;5074713;28;19925;-91
2022/04/17 00:24:34;;;;;;;;;;;14.60;99.90;;;;;;5075016;28;19928;-90
2022/04/17 00:27:00;;;;;;;;;;;14.50;99.90;;;;;;5074847;28;20340;-90
2022/04/17 00:29:27;;;;;;;;;;;14.60;99.90;;;;;;5075088;28;19928;-89
2022/04/17 00:31:54;;;;;;;;;;;14.50;99.90;;;;;;5075923;28;19978;-89
2022/04/17 00:34:22;;;;;;;;;;;14.50;99.90;;;;;;5079109;28;19928;-89
2022/04/17 00:36:49;;;;;;;;;;;14.40;99.90;;;;;;5078802;28;19924;-91
2022/04/17 00:39:16;;;;;;;;;;;14.40;99.90;;;;;;5078766;28;20370;-90
2022/04/17 00:41:42;;;;;;;;;;;14.30;99.90;;;;;;5078701;28;19936;-89
2022/04/17 00:44:11;;;;;;;;;;;14.20;99.90;;;;;;5078783;28;19931;-90
2022/04/17 00:46:38;;;;;;;;;;;14.20;99.90;;;;;;5083416;28;19983;-85
2022/04/17 00:49:05;;;;;;;;;;;14.30;99.90;;;;;;5090406;28;19925;-85
2022/04/17 00:51:33;;;;;;;;;;;14.30;99.90;;;;;;5090735;28;19971;-84
2022/04/17 00:54:01;;;;;;;;;;;14.30;99.90;;;;;;5088743;28;19999;-88
2022/04/17 00:56:28;;;;;;;;;;;14.10;99.90;;;;;;5081625;28;19982;-88
2022/04/17 00:58:54;;;;;;;;;;;14.10;99.90;;;;;;5078552;28;19929;-89
2022/04/17 01:01:21;;;;;;;;;;;14.20;99.90;;;;;;5078314;28;20386;-88
2022/04/17 01:03:49;;;;;;;;;;;14.20;99.90;;;;;;5078796;28;19925;-89
2022/04/17 01:06:16;;;;;;;;;;;14.00;99.90;;;;;;5078231;28;19986;-89
2022/04/17 01:08:44;;;;;;;;;;;13.90;99.90;;;;;;5078113;28;19929;-89
2022/04/17 01:11:11;;;;;;;;;;;13.90;99.90;;;;;;5077882;28;19931;-89
2022/04/17 01:13:39;;;;;;;;;;;14.00;99.90;;;;;;5078040;28;19931;-88
2022/04/17 01:16:06;;;;;;;;;;;14.10;99.90;;;;;;5079086;28;19924;-87
2022/04/17 01:18:48;;;;;;;;;;;14.20;99.90;;;;;;5080892;28;19951;-87
2022/04/17 01:21:19;;;;;;;;;;;14.00;99.90;;;;;;5080749;28;19924;-86
2022/04/17 01:29:15;;;;;;;;;;;13.70;99.90;;;;;;5077861;28;20456;-90
2022/04/17 01:31:42;;;;;;;;;;;13.60;99.90;;;;;;5077204;28;19925;-90
2022/04/17 01:34:09;;;;;;;;;;;13.60;99.90;;;;;;5077712;28;19925;-90
2022/04/17 01:36:37;;;;;;;;;;;13.60;99.90;;;;;;5077598;28;19925;-90
2022/04/17 01:39:03;;;;;;;;;;;13.60;99.90;;;;;;5077557;28;19973;-89
2022/04/17 01:41:30;;;;;;;;;;;13.70;99.90;;;;;;5077599;28;19947;-90
2022/04/17 01:43:57;;;;;;;;;;;13.70;99.90;;;;;;5075871;28;19925;-89
2022/04/17 01:46:24;;;;;;;;;;;13.60;99.90;;;;;;5077147;28;19928;-87
2022/04/17 01:48:50;;;;;;;;;;;13.70;99.90;;;;;;5077366;28;19925;-89
2022/04/17 01:51:17;;;;;;;;;;;13.60;99.90;;;;;;5078035;28;20338;-90
2022/04/17 01:53:46;;;;;;;;;;;13.60;99.90;;;;;;5077737;28;19970;-90
2022/04/17 01:56:13;;;;;;;;;;;13.40;99.90;;;;;;5077494;28;19925;-91
2022/04/17 01:58:39;;;;;;;;;;;13.70;99.90;;;;;;5077599;28;19970;-91
2022/04/17 02:01:06;;;;;;;;;;;13.70;99.90;;;;;;5077619;28;19935;-88
2022/04/17 02:03:33;;;;;;;;;;;13.50;99.90;;;;;;5077504;28;19932;-89
2022/04/17 02:06:00;;;;;;;;;;;13.50;99.90;;;;;;5077684;28;20267;-90
2022/04/17 02:08:27;;;;;;;;;;;13.60;99.90;;;;;;5077669;28;19978;-90
2022/04/17 02:10:56;;;;;;;;;;;13.70;99.90;;;;;;5077235;28;19924;-90
2022/04/17 02:13:23;;;;;;;;;;;13.50;99.90;;;;;;5077342;28;20267;-90
2022/04/17 02:15:53;;;;;;;;;;;13.50;99.90;;;;;;5077411;28;20286;-89
2022/04/17 02:18:20;;;;;;;;;;;13.40;99.90;;;;;;5077724;28;19925;-90
2022/04/17 02:20:47;;;;;;;;;;;13.30;99.90;;;;;;5077529;28;19931;-89
2022/04/17 02:23:14;;;;;;;;;;;11.90;99.90;;;;;;5077432;28;19928;-90
2022/04/17 02:25:41;;;;;;;;;;;13.30;99.90;;;;;;5077100;28;19970;-89
2022/04/17 02:28:09;;;;;;;;;;;13.30;99.90;;;;;;5076676;28;19978;-89
2022/04/17 02:30:36;;;;;;;;;;;13.30;99.90;;;;;;5077296;28;20294;-88
2022/04/17 02:33:03;;;;;;;;;;;13.30;99.90;;;;;;5076988;28;20023;-88
2022/04/17 02:35:30;;;;;;;;;;;13.20;99.90;;;;;;5077086;28;20286;-90
2022/04/17 02:37:57;;;;;;;;;;;13.20;99.90;;;;;;5077252;28;19924;-89
2022/04/17 02:40:24;;;;;;;;;;;13.10;99.90;;;;;;5077399;28;19990;-89
2022/04/17 02:42:53;;;;;;;;;;;13.00;99.90;;;;;;5089349;28;19932;-85
2022/04/17 02:45:21;;;;;;;;;;;13.00;99.90;;;;;;5089915;28;19979;-85
2022/04/17 02:47:50;;;;;;;;;;;13.20;99.90;;;;;;5090007;28;19978;-84
2022/04/17 02:50:18;;;;;;;;;;;13.30;99.90;;;;;;5081699;28;19924;-88
2022/04/17 02:52:45;;;;;;;;;;;13.30;99.90;;;;;;5078059;28;19928;-90
2022/04/17 02:55:12;;;;;;;;;;;13.20;99.90;;;;;;5076458;28;19994;-90
2022/04/17 02:57:39;;;;;;;;;;;13.10;99.90;;;;;;5076058;28;19925;-89
2022/04/17 03:00:06;;;;;;;;;;;13.10;99.90;;;;;;5076693;28;19928;-88
2022/04/17 03:05:41;;;;;;;;;;;13.00;99.90;;;;;;5076519;28;19931;-90
2022/04/17 03:08:09;;;;;;;;;;;12.90;99.90;;;;;;5076430;28;19924;-90
2022/04/17 03:10:36;;;;;;;;;;;12.90;99.90;;;;;;5076196;28;19928;-88
2022/04/17 03:13:04;;;;;;;;;;;12.80;99.90;;;;;;5076498;28;19925;-87
2022/04/17 03:15:31;;;;;;;;;;;12.70;99.90;;;;;;5076568;28;20014;-89
2022/04/17 03:17:59;;;;;;;;;;;12.70;99.90;;;;;;5076266;28;19932;-89
2022/04/17 03:20:26;;;;;;;;;;;11.70;99.90;;;;;;5075691;28;19968;-89
2022/04/17 03:22:53;;;;;;;;;;;12.70;99.90;;;;;;5076221;28;19954;-88
2022/04/17 03:25:20;;;;;;;;;;;12.60;99.90;;;;;;5075855;28;19962;-89
2022/04/17 03:27:47;;;;;;;;;;;12.60;99.90;;;;;;5076142;28;19924;-91
2022/04/17 03:30:16;;;;;;;;;;;12.60;99.90;;;;;;5076169;28;19995;-89
2022/04/17 03:32:43;;;;;;;;;;;12.70;99.90;;;;;;5076023;28;19924;-90
2022/04/17 03:35:12;;;;;;;;;;;12.70;99.90;;;;;;5075516;28;20440;-90
2022/04/17 03:37:38;;;;;;;;;;;12.70;99.90;;;;;;5075587;28;19950;-90
2022/04/17 03:40:06;;;;;;;;;;;12.60;99.90;;;;;;5075555;28;19924;-89
2022/04/17 03:42:32;;;;;;;;;;;12.60;99.90;;;;;;5075301;28;19978;-89
2022/04/17 03:44:59;;;;;;;;;;;12.70;99.90;;;;;;5075158;28;19924;-88
2022/04/17 03:47:26;;;;;;;;;;;12.60;99.90;;;;;;5075584;28;19928;-88
2022/04/17 03:49:53;;;;;;;;;;;12.50;99.90;;;;;;5075362;28;19928;-89
2022/04/17 03:52:21;;;;;;;;;;;12.40;99.90;;;;;;5074967;28;20428;-89
2022/04/17 03:54:48;;;;;;;;;;;12.40;99.90;;;;;;5074865;28;20383;-89
2022/04/17 03:57:15;;;;;;;;;;;12.40;99.90;;;;;;5075271;28;19929;-89
2022/04/17 03:59:41;;;;;;;;;;;12.40;99.90;;;;;;5075331;28;19947;-89
2022/04/17 04:02:08;;;;;;;;;;;12.30;99.90;;;;;;5075497;28;19978;-90
2022/04/17 04:04:36;;;;;;;;;;;12.50;99.90;;;;;;5075546;28;19975;-89
2022/04/17 04:07:03;;;;;;;;;;;12.20;99.90;;;;;;5077105;28;20003;-89
2022/04/17 04:09:31;;;;;;;;;;;12.10;99.90;;;;;;5079844;28;20293;-90
2022/04/17 04:11:57;;;;;;;;;;;12.20;99.90;;;;;;5079844;28;19970;-90
2022/04/17 04:14:24;;;;;;;;;;;12.00;99.90;;;;;;5079950;28;19929;-89
2022/04/17 04:16:51;;;;;;;;;;;12.10;99.90;;;;;;5080251;28;19986;-88
2022/04/17 04:19:18;;;;;;;;;;;12.10;99.90;;;;;;5079698;28;19993;-89
2022/04/17 04:21:51;;;;;;;;;;;12.10;99.90;;;;;;5079966;28;19932;-89
2022/04/17 04:24:19;;;;;;;;;;;12.10;99.90;;;;;;5079985;28;19925;-88
2022/04/17 04:28:32;;;;;;;;;;;12.00;99.90;;;;;;5079784;28;20350;-88
2022/04/17 04:29:35;;;;;;;;;;;11.90;99.90;;;;;;5082080;28;20018;-88
2022/04/17 04:32:01;;;;;;;;;;;11.90;99.90;;;;;;5080667;28;19925;-89
2022/04/17 04:34:28;;;;;;;;;;;11.80;99.90;;;;;;5079288;28;19925;-89
2022/04/17 04:36:55;;;;;;;;;;;11.90;99.90;;;;;;5088225;28;19990;-84
2022/04/17 04:39:22;;;;;;;;;;;11.90;99.90;;;;;;5091397;28;19924;-85
2022/04/17 04:41:50;;;;;;;;;;;11.90;99.90;;;;;;5091900;28;19924;-85
2022/04/17 04:44:17;;;;;;;;;;;11.90;99.90;;;;;;5088032;28;19925;-89
2022/04/17 04:46:43;;;;;;;;;;;11.90;99.90;;;;;;5081661;28;20363;-89
2022/04/17 04:51:54;;;;;;;;;;;11.80;99.90;;;;;;5078548;28;20449;-89
2022/04/17 04:54:20;;;;;;;;;;;11.90;99.90;;;;;;5078559;28;19924;-89
2022/04/17 04:56:47;;;;;;;;;;;11.70;99.90;;;;;;5078623;28;19924;-90
2022/04/17 04:59:15;;;;;;;;;;;11.70;99.90;;;;;;5078941;28;20305;-90
2022/04/17 05:01:42;;;;;;;;;;;11.70;99.90;;;;;;5079163;28;19986;-89
2022/04/17 05:04:09;;;;;;;;;;;11.70;99.90;;;;;;5078880;28;20329;-89
2022/04/17 05:06:36;;;;;;;;;;;11.60;99.90;;;;;;5078933;28;19931;-89
2022/04/17 05:09:02;;;;;;;;;;;11.50;99.90;;;;;;5078654;28;19968;-89
2022/04/17 05:11:29;;;;;;;;;;;11.50;99.90;;;;;;5078267;28;20402;-89
2022/04/17 05:13:56;;;;;;;;;;;11.50;99.90;;;;;;5078197;28;20412;-88
2022/04/17 05:16:24;;;;;;;;;;;11.50;99.90;;;;;;5078261;28;19924;-89
2022/04/17 05:19:18;;;;;;;;;;;11.40;99.90;;;;;;5078219;28;19978;-89
2022/04/17 05:21:38;;;;;;;;;;;11.40;99.90;;;;;;5078070;28;19977;-89
2022/04/17 05:24:05;;;;;;;;;;;10.70;99.90;;;;;;5078055;28;19929;-89
2022/04/17 05:26:31;;;;;;;;;;;11.40;99.90;;;;;;5078364;28;19936;-90
2022/04/17 05:29:02;;;;;;;;;;;11.40;99.90;;;;;;5078573;28;19946;-89
2022/04/17 05:31:32;;;;;;;;;;;11.50;99.90;;;;;;5077963;28;19931;-89
2022/04/17 05:33:59;;;;;;;;;;;11.40;99.90;;;;;;5077940;28;20386;-88
2022/04/17 05:36:25;;;;;;;;;;;11.30;99.90;;;;;;5077837;28;19925;-87
2022/04/17 05:38:53;;;;;;;;;;;10.40;99.90;;;;;;5079091;28;19924;-89
2022/04/17 05:41:20;;;;;;;;;;;11.30;99.90;;;;;;5077894;28;19959;-89
2022/04/17 05:43:48;;;;;;;;;;;11.40;99.90;;;;;;5077849;28;20390;-89
2022/04/17 05:46:14;;;;;;;;;;;11.40;99.90;;;;;;5077498;28;20319;-90
2022/04/17 05:48:43;;;;;;;;;;;11.40;99.90;;;;;;5077933;28;19947;-88
2022/04/17 05:51:10;;;;;;;;;;;11.40;99.90;;;;;;5077763;28;19946;-89
2022/04/17 05:53:36;;;;;;;;;;;11.30;99.90;;;;;;5077776;28;20400;-89
2022/04/17 05:56:03;;;;;;;;;;;11.50;99.90;;;;;;5077390;28;19924;-89
2022/04/17 05:58:30;;;;;;;;;;;11.50;99.90;;;;;;5078045;28;19978;-88
2022/04/17 06:00:57;;;;;;;;;;;11.60;99.90;;;;;;5077899;28;19924;-90
2022/04/17 06:03:23;;;;;;;;;;;11.70;99.90;;;;;;5077681;28;19924;-88
2022/04/17 06:05:52;;;;;;;;;;;11.80;99.90;;;;;;5077341;28;20268;-89
2022/04/17 06:08:19;;;;;;;;;;;11.80;99.90;;;;;;5077339;28;19924;-89
2022/04/17 06:10:46;;;;;;;;;;;12.00;99.90;;;;;;5077645;28;19980;-88
2022/04/17 06:13:13;;;;;;;;;;;12.00;99.90;;;;;;5077225;28;20448;-89
2022/04/17 06:15:40;;;;;;;;;;;12.10;99.90;;;;;;5076581;28;19924;-86
2022/04/17 06:18:07;;;;;;;;;;;12.30;99.90;;;;;;5076602;28;20292;-89
2022/04/17 06:20:34;;;;;;;;;;;12.30;99.90;;;;;;5076317;28;20386;-89
2022/04/17 06:23:02;;;;;;;;;;;12.50;99.90;;;;;;5076815;28;20433;-89
2022/04/17 06:25:31;;;;;;;;;;;12.40;99.90;;;;;;5077351;28;19982;-89
2022/04/17 06:27:59;;;;;;;;;;;12.50;99.90;;;;;;5077142;28;20401;-89
2022/04/17 06:30:26;;;;;;;;;;;12.70;99.90;;;;;;5077079;28;19975;-90
2022/04/17 06:32:53;;;;;;;;;;;12.80;99.90;;;;;;5088580;28;19925;-85
2022/04/17 06:35:19;;;;;;;;;;;12.90;99.90;;;;;;5089802;28;19924;-85
2022/04/17 06:37:47;;;;;;;;;;;11.90;99.90;;;;;;5089584;28;19924;-85
2022/04/17 06:40:17;;;;;;;;;;;13.10;99.90;;;;;;5082189;28;19924;-89
2022/04/17 06:42:44;;;;;;;;;;;13.20;99.90;;;;;;5078970;28;19971;-89
2022/04/17 06:45:11;;;;;;;;;;;13.50;99.90;;;;;;5077186;28;19924;-89
2022/04/17 06:47:38;;;;;;;;;;;13.30;99.90;;;;;;5076693;28;19935;-88
2022/04/17 06:50:05;;;;;;;;;;;13.40;99.90;;;;;;5076779;28;19970;-89
2022/04/17 06:52:32;;;;;;;;;;;13.30;99.90;;;;;;5076668;28;19958;-90
2022/04/17 06:54:58;;;;;;;;;;;13.50;99.90;;;;;;5076833;28;19925;-90
2022/04/17 06:57:31;;;;;;;;;;;13.50;99.90;;;;;;5075868;28;19928;-89
2022/04/17 06:59:58;;;;;;;;;;;13.60;99.90;;;;;;5076286;28;19924;-89
2022/04/17 07:02:24;;;;;;;;;;;13.70;99.90;;;;;;5076747;28;19925;-90
2022/04/17 07:04:51;;;;;;;;;;;13.70;99.90;;;;;;5077107;28;19983;-90
2022/04/17 07:07:18;;;;;;;;;;;12.90;99.90;;;;;;5076640;28;19970;-89
2022/04/17 07:09:45;;;;;;;;;;;13.80;99.90;;;;;;5077974;28;19954;-90
2022/04/17 07:12:12;;;;;;;;;;;14.00;99.90;;;;;;5076229;28;19963;-89
2022/04/17 07:14:40;;;;;;;;;;;14.00;99.90;;;;;;5076408;28;19986;-90
2022/04/17 07:17:07;;;;;;;;;;;14.10;99.90;;;;;;5076023;28;20332;-90
2022/04/17 07:19:34;;;;;;;;;;;14.20;99.90;;;;;;5076232;28;20383;-89
2022/04/17 07:22:00;;;;;;;;;;;14.10;99.90;;;;;;5076086;28;19955;-90
2022/04/17 07:24:27;;;;;;;;;;;14.30;99.90;;;;;;5076105;28;19925;-90
2022/04/17 07:26:56;;;;;;;;;;;14.40;99.90;;;;;;5076333;28;19925;-89
2022/04/17 07:29:23;;;;;;;;;;;14.50;99.90;;;;;;5076228;28;19931;-90
2022/04/17 07:31:53;;;;;;;;;;;14.30;99.90;;;;;;5076085;28;20361;-89
2022/04/17 07:34:20;;;;;;;;;;;14.20;99.90;;;;;;5076422;28;19925;-90
2022/04/17 07:36:47;;;;;;;;;;;14.20;99.90;;;;;;5076242;28;19928;-87
2022/04/17 07:39:16;;;;;;;;;;;14.40;99.90;;;;;;5076826;28;19925;-88
2022/04/17 07:41:43;;;;;;;;;;;14.50;99.90;;;;;;5079578;28;19924;-89
2022/04/17 07:44:11;;;;;;;;;;;14.60;99.90;;;;;;5079134;28;19924;-86
2022/04/17 07:46:38;;;;;;;;;;;14.70;99.90;;;;;;5075885;28;19924;-90
2022/04/17 07:49:07;;;;;;;;;;;14.70;99.90;;;;;;5076032;28;20394;-90
2022/04/17 07:51:34;;;;;;;;;;;14.40;99.90;;;;;;5076616;28;19924;-87
2022/04/17 07:54:03;;;;;;;;;;;14.70;99.90;;;;;;5077168;28;19924;-89
2022/04/17 07:56:30;;;;;;;;;;;14.80;99.90;;;;;;5076462;28;19942;-89
2022/04/17 07:58:57;;;;;;;;;;;15.10;99.90;;;;;;5076604;28;19925;-89
2022/04/17 08:01:23;;;;;;;;;;;15.20;99.90;;;;;;5077039;28;20057;-90
2022/04/17 08:03:50;;;;;;;;;;;15.50;99.90;;;;;;5076148;28;19978;-89
2022/04/17 08:06:20;;;;;;;;;;;15.70;99.90;;;;;;5076040;28;19928;-90
2022/04/17 08:08:50;;;;;;;;;;;15.90;99.90;;;;;;5075748;28;19982;-90
2022/04/17 08:11:18;;;;;;;;;;;15.90;99.40;;;;;;5075842;28;19928;-90
2022/04/17 08:13:46;;;;;;;;;;;16.00;99.90;;;;;;5075675;28;20318;-89
2022/04/17 08:16:14;;;;;;;;;;;16.00;99.80;;;;;;5077015;28;19924;-90
2022/04/17 08:18:42;;;;;;;;;;;16.10;99.10;;;;;;5077021;28;19925;-88
2022/04/17 08:21:09;;;;;;;;;;;16.20;99.00;;;;;;5075383;28;19924;-89
2022/04/17 08:23:38;;;;;;;;;;;16.00;99.10;;;;;;5075122;28;20428;-90
2022/04/17 08:26:05;;;;;;;;;;;16.20;98.60;;;;;;5078823;28;19931;-86
2022/04/17 08:28:32;;;;;;;;;;;16.30;99.30;;;;;;5087676;28;19928;-87
2022/04/17 08:30:59;;;;;;;;;;;16.40;98.30;;;;;;5088505;28;19929;-85
2022/04/17 08:33:26;;;;;;;;;;;16.50;97.80;;;;;;5088253;28;19924;-90
2022/04/17 08:35:54;;;;;;;;;;;16.00;98.00;;;;;;5080633;28;19928;-88
2022/04/17 08:38:21;;;;;;;;;;;16.80;97.50;;;;;;5080225;28;19932;-87
2022/04/17 08:40:51;;;;;;;;;;;16.80;97.30;;;;;;5080613;28;19924;-88
2022/04/17 08:43:22;;;;;;;;;;;16.90;96.40;;;;;;5078696;28;19932;-89
2022/04/17 08:45:50;;;;;;;;;;;16.90;96.50;;;;;;5079534;28;19931;-89
2022/04/17 08:48:17;;;;;;;;;;;17.10;96.70;;;;;;5080219;28;19924;-89
2022/04/17 08:50:44;;;;;;;;;;;17.20;96.80;;;;;;5080074;28;19971;-89
2022/04/17 08:53:14;;;;;;;;;;;14.90;96.20;;;;;;5080346;28;19932;-89
2022/04/17 08:55:42;;;;;;;;;;;17.30;97.00;;;;;;5082869;28;19924;-88
2022/04/17 08:58:10;;;;;;;;;;;17.40;96.80;;;;;;5082425;28;20042;-89
2022/04/17 09:00:37;;;;;;;;;;;17.40;96.70;;;;;;5082469;28;19924;-87
2022/04/17 09:03:04;;;;;;;;;;;17.60;97.00;;;;;;5082651;28;20267;-86
2022/04/17 09:05:33;;;;;;;;;;;17.70;96.60;;;;;;5081517;28;19924;-88
2022/04/17 09:08:11;;;;;;;;;;;17.40;96.90;;;;;;5081648;28;19928;-88
2022/04/17 09:10:38;;;;;;;;;;;17.60;96.60;;;;;;5081811;28;19928;-87
2022/04/17 09:13:05;;;;;;;;;;;17.20;96.60;;;;;;5083038;28;19974;-87
2022/04/17 09:15:34;;;;;;;;;;;17.50;97.00;;;;;;5083115;28;19928;-86
2022/04/17 09:18:01;;;;;;;;;;;17.50;96.50;;;;;;5082616;28;19924;-88
2022/04/17 09:20:29;;;;;;;;;;;17.40;96.40;;;;;;5082841;28;20383;-87
2022/04/17 09:22:58;;;;;;;;;;;17.30;97.70;;;;;;5082910;28;19950;-87
2022/04/17 09:25:25;;;;;;;;;;;17.60;96.80;;;;;;5081984;28;19924;-88
2022/04/17 09:27:55;;;;;;;;;;;17.80;96.90;;;;;;5080470;28;20338;-89
2022/04/17 09:30:26;;;;;;;;;;;17.90;96.50;;;;;;5081300;28;19924;-90
2022/04/17 09:32:55;;;;;;;;;;;17.90;96.90;;;;;;5080389;28;20035;-89
2022/04/17 09:35:22;;;;;;;;;;;17.30;96.40;;;;;;5081132;28;19924;-89
2022/04/17 09:37:49;;;;;;;;;;;17.80;96.50;;;;;;5079771;28;19925;-88
2022/04/17 09:40:20;;;;;;;;;;;18.00;96.70;;;;;;5079699;28;20268;-89
2022/04/17 09:42:48;;;;;;;;;;;18.00;95.90;;;;;;5078933;28;19978;-87
2022/04/17 09:45:14;;;;;;;;;;;17.90;96.10;;;;;;5079505;28;19928;-89
2022/04/17 09:47:41;;;;;;;;;;;18.00;95.70;;;;;;5081027;28;19931;-89
2022/04/17 09:50:10;;;;;;;;;;;17.90;96.00;;;;;;5078669;28;19929;-89
2022/04/17 09:52:40;;;;;;;;;;;18.40;95.80;;;;;;5078366;28;19925;-89
2022/04/17 09:55:08;;;;;;;;;;;18.20;95.70;;;;;;5078471;28;19924;-88
2022/04/17 09:57:35;;;;;;;;;;;18.00;96.10;;;;;;5078316;28;20385;-90
2022/04/17 10:00:12;;;;;;;;;;;18.00;95.90;;;;;;5079440;28;20341;-89
2022/04/17 10:02:39;;;;;;;;;;;18.00;95.70;;;;;;5081612;28;19947;-88
2022/04/17 10:05:07;;;;;;;;;;;18.10;95.80;;;;;;5078885;28;19954;-88
2022/04/17 10:07:36;;;;;;;;;;;18.20;95.60;;;;;;5080551;28;19946;-90
2022/04/17 10:10:02;;;;;;;;;;;18.30;95.70;;;;;;5079352;28;19924;-88
2022/04/17 10:12:30;;;;;;;;;;;18.30;95.80;;;;;;5080411;28;19971;-88
2022/04/17 10:15:01;;;;;;;;;;;18.30;95.70;;;;;;5078691;28;20061;-90
2022/04/17 10:17:28;;;;;;;;;;;18.40;95.70;;;;;;5078562;28;19935;-90
2022/04/17 10:19:55;;;;;;;;;;;17.90;95.80;;;;;;5078337;28;19955;-90
2022/04/17 10:22:25;;;;;;;;;;;18.50;96.00;;;;;;5088624;28;19924;-86
2022/04/17 10:24:54;;;;;;;;;;;18.50;96.10;;;;;;5090406;28;19924;-85
2022/04/17 10:27:23;;;;;;;;;;;18.70;95.30;;;;;;5091501;28;19924;-86
2022/04/17 10:29:53;;;;;;;;;;;18.70;95.40;;;;;;5084303;28;19925;-88
2022/04/17 10:32:28;;;;;;;;;;;18.60;95.20;;;;;;5079865;28;19929;-88
2022/04/17 10:35:08;;;;;;;;;;;18.70;95.30;;;;;;5077576;28;19924;-90
2022/04/17 10:37:52;;;;;;;;;;;18.80;94.70;;;;;;5077448;28;19931;-89
2022/04/17 10:40:22;;;;;;;;;;;18.80;94.50;;;;;;5077881;28;20374;-87
2022/04/17 10:42:54;;;;;;;;;;;18.80;94.20;;;;;;5077818;28;20271;-90
2022/04/17 10:45:22;;;;;;;;;;;18.90;94.10;;;;;;5077046;28;20382;-89
2022/04/17 10:48:01;;;;;;;;;;;18.80;94.30;;;;;;5078129;28;20359;-88
2022/04/17 10:50:30;;;;;;;;;;;18.90;94.40;;;;;;5080025;28;19947;-86
2022/04/17 10:52:59;;;;;;;;;;;18.70;94.30;;;;;;5080481;28;19930;-89
2022/04/17 10:55:28;;;;;;;;;;;18.30;94.90;;;;;;5078741;28;19924;-89
2022/04/17 10:57:56;;;;;;;;;;;18.90;94.80;;;;;;5076473;28;19924;-89
2022/04/17 11:00:24;;;;;;;;;;;19.10;94.00;;;;;;5076854;28;20000;-89
2022/04/17 11:02:51;;;;;;;;;;;19.40;93.90;;;;;;5077262;28;19924;-89
2022/04/17 11:05:33;;;;;;;;;;;19.20;93.80;;;;;;5076986;28;19997;-90
2022/04/17 11:08:16;;;;;;;;;;;19.40;93.70;;;;;;5076818;28;19947;-90
2022/04/17 11:10:44;;;;;;;;;;;19.40;93.30;;;;;;5077011;28;19924;-90
2022/04/17 11:13:11;;;;;;;;;;;19.40;94.00;;;;;;5075922;28;19947;-90
2022/04/17 11:15:39;;;;;;;;;;;19.30;94.20;;;;;;5075785;28;19928;-90
2022/04/17 11:18:07;;;;;;;;;;;19.50;94.40;;;;;;5075701;28;19925;-89
2022/04/17 11:20:34;;;;;;;;;;;19.60;93.90;;;;;;5076034;28;19979;-89
2022/04/17 11:23:01;;;;;;;;;;;19.70;94.30;;;;;;5076697;28;19924;-88
2022/04/17 11:25:29;;;;;;;;;;;19.40;94.30;;;;;;5079054;28;20394;-91
2022/04/17 11:28:02;;;;;;;;;;;19.30;94.70;;;;;;5076618;28;19925;-89
2022/04/17 11:30:32;;;;;;;;;;;19.40;94.60;;;;;;5077390;28;19929;-90
2022/04/17 11:33:00;;;;;;;;;;;19.50;94.40;;;;;;5075963;28;20026;-90
2022/04/17 11:35:28;;;;;;;;;;;19.40;94.40;;;;;;5077831;28;19946;-89
2022/04/17 11:37:56;;;;;;;;;;;19.40;93.90;;;;;;5076517;28;19925;-89
2022/04/17 11:40:24;;;;;;;;;;;19.30;94.20;;;;;;5076494;28;19924;-89
2022/04/17 11:42:52;;;;;;;;;;;19.50;93.90;;;;;;5076513;28;20020;-90
2022/04/17 11:45:21;;;;;;;;;;;19.30;95.00;;;;;;5076912;28;19928;-89
2022/04/17 11:47:48;;;;;;;;;;;19.30;94.70;;;;;;5076923;28;19924;-88
2022/04/17 11:50:20;;;;;;;;;;;19.60;94.90;;;;;;5075816;28;19928;-90
2022/04/17 11:52:50;;;;;;;;;;;19.80;94.60;;;;;;5077395;28;20023;-90
2022/04/17 11:55:17;;;;;;;;;;;20.00;94.60;;;;;;5076904;28;20001;-90
2022/04/17 11:57:44;;;;;;;;;;;19.40;93.90;;;;;;5076858;28;20345;-89
2022/04/17 12:00:13;;;;;;;;;;;19.80;94.00;;;;;;5076286;28;19924;-89
2022/04/17 12:02:41;;;;;;;;;;;19.60;94.70;;;;;;5076203;28;20383;-89
2022/04/17 12:05:09;;;;;;;;;;;19.70;94.60;;;;;;5077997;28;20386;-87
2022/04/17 12:07:36;;;;;;;;;;;19.80;94.60;;;;;;5080291;28;19924;-88
2022/04/17 12:10:04;;;;;;;;;;;19.60;94.80;;;;;;5078803;28;19946;-89
2022/04/17 12:12:33;;;;;;;;;;;19.90;94.80;;;;;;5076390;28;19971;-89
2022/04/17 12:15:03;;;;;;;;;;;19.70;94.80;;;;;;5076646;28;19970;-89
2022/04/17 12:17:30;;;;;;;;;;;19.80;94.80;;;;;;5087882;28;19947;-85
2022/04/17 12:19:58;;;;;;;;;;;19.50;94.10;;;;;;5088514;28;19955;-85
2022/04/17 12:22:25;;;;;;;;;;;20.10;93.50;;;;;;5088778;28;19928;-84
2022/04/17 12:24:52;;;;;;;;;;;19.70;94.00;;;;;;5084096;28;19925;-86
2022/04/17 12:27:20;;;;;;;;;;;19.90;94.80;;;;;;5078340;28;20333;-90
2022/04/17 12:29:47;;;;;;;;;;;20.10;94.20;;;;;;5080025;28;19930;-89
2022/04/17 12:32:14;;;;;;;;;;;20.10;94.00;;;;;;5079434;28;19925;-89
2022/04/17 12:34:45;;;;;;;;;;;20.30;93.60;;;;;;5080097;28;20000;-89
2022/04/17 12:37:22;;;;;;;;;;;20.20;94.00;;;;;;5079840;28;19963;-92
2022/04/17 12:39:49;;;;;;;;;;;20.20;93.50;;;;;;5080091;28;19982;-89
2022/04/17 12:42:16;;;;;;;;;;;20.10;93.60;;;;;;5079962;28;19925;-91
2022/04/17 12:44:44;;;;;;;;;;;20.40;93.70;;;;;;5079286;28;19924;-90
2022/04/17 12:47:12;;;;;;;;;;;20.60;93.30;;;;;;5081028;28;19924;-90
2022/04/17 12:49:39;;;;;;;;;;;20.60;92.90;;;;;;5080963;28;19925;-90
2022/04/17 12:52:06;;;;;;;;;;;20.30;93.70;;;;;;5080806;28;19978;-90
2022/04/17 12:54:36;;;;;;;;;;;20.40;93.60;;;;;;5079894;28;19977;-89
2022/04/17 12:57:03;;;;;;;;;;;20.60;93.80;;;;;;5081649;28;19931;-89
2022/04/17 12:59:39;;;;;;;;;;;20.70;93.40;;;;;;5079870;28;20448;-90
2022/04/17 13:02:11;;;;;;;;;;;20.70;93.20;;;;;;5079587;28;19924;-91
2022/04/17 13:04:41;;;;;;;;;;;20.20;93.00;;;;;;5080806;28;19932;-90
2022/04/17 13:07:09;;;;;;;;;;;20.80;93.00;;;;;;5079453;28;19930;-91
2022/04/17 13:09:37;;;;;;;;;;;20.50;92.80;;;;;;5079415;28;20430;-88
2022/04/17 13:12:04;;;;;;;;;;;20.50;93.90;;;;;;5079417;28;19931;-90
2022/04/17 13:14:31;;;;;;;;;;;20.80;93.80;;;;;;5079131;28;19978;-89
2022/04/17 13:17:00;;;;;;;;;;;20.70;92.90;;;;;;5079125;28;19925;-89
2022/04/17 13:19:27;;;;;;;;;;;20.80;93.00;;;;;;5079402;28;20328;-89
2022/04/17 13:21:55;;;;;;;;;;;21.00;93.30;;;;;;5079140;28;19928;-89
2022/04/17 13:24:22;;;;;;;;;;;20.90;92.80;;;;;;5078523;28;19931;-87
2022/04/17 13:26:52;;;;;;;;;;;21.00;92.90;;;;;;5079088;28;19924;-88
2022/04/17 13:29:18;;;;;;;;;;;21.00;92.40;;;;;;5079148;28;19932;-90
2022/04/17 13:31:45;;;;;;;;;;;21.20;92.80;;;;;;5079025;28;19925;-89
2022/04/17 13:34:12;;;;;;;;;;;21.10;92.60;;;;;;5078622;28;19946;-92
2022/04/17 13:36:39;;;;;;;;;;;21.10;92.50;;;;;;5079250;28;19933;-89
2022/04/17 13:39:06;;;;;;;;;;;21.30;92.50;;;;;;5077285;28;19985;-91
2022/04/17 13:41:33;;;;;;;;;;;21.20;92.40;;;;;;5079000;28;20419;-90
2022/04/17 13:44:01;;;;;;;;;;;21.20;92.80;;;;;;5077999;28;19928;-90
2022/04/17 13:46:31;;;;;;;;;;;22.60;92.80;;;;;;5078725;28;19990;-89
2022/04/17 13:48:58;;;;;;;;;;;21.20;92.80;;;;;;5078160;28;19970;-87
2022/04/17 13:51:25;;;;;;;;;;;21.30;92.00;;;;;;5078846;28;19924;-87
2022/04/17 13:53:52;;;;;;;;;;;21.10;90.60;;;;;;5082449;28;20374;-86
2022/04/17 13:56:21;;;;;;;;;;;20.80;90.80;;;;;;5080898;28;19978;-90
2022/04/17 13:58:48;;;;;;;;;;;18.80;90.70;;;;;;5078422;28;19925;-89
2022/04/17 14:01:16;;;;;;;;;;;21.00;91.00;;;;;;5078421;28;19924;-89
2022/04/17 14:03:43;;;;;;;;;;;21.10;91.00;;;;;;5078986;28;19925;-90
2022/04/17 14:06:11;;;;;;;;;;;21.00;91.40;;;;;;5077334;28;19951;-91
2022/04/17 14:08:37;;;;;;;;;;;21.00;91.20;;;;;;5078987;28;19925;-89
2022/04/17 14:11:04;;;;;;;;;;;21.20;91.10;;;;;;5085632;28;19929;-87
2022/04/17 14:13:31;;;;;;;;;;;21.30;90.90;;;;;;5091692;28;19986;-87
2022/04/17 14:15:58;;;;;;;;;;;21.40;91.00;;;;;;5092452;28;19994;-84
2022/04/17 14:18:26;;;;;;;;;;;21.40;91.20;;;;;;5089915;28;19928;-88
2022/04/17 14:20:53;;;;;;;;;;;21.60;91.10;;;;;;5084064;28;20390;-91
2022/04/17 14:23:19;;;;;;;;;;;21.30;90.70;;;;;;5077908;28;19935;-90
2022/04/17 14:25:46;;;;;;;;;;;21.70;90.60;;;;;;5078550;28;20401;-90
2022/04/17 14:28:13;;;;;;;;;;;21.60;90.60;;;;;;5078450;28;19924;-91
2022/04/17 14:30:40;;;;;;;;;;;21.50;90.90;;;;;;5077852;28;19974;-87